Time;durP1;ratioP1;P1;durP2;ratioP2;P2;SDS_P1;SDS_P2;PMS_P1;PMS_P2;Temp;Humidity;BMP_temperature;BMP_pressure;BME280_temperature;BME280_humidity;BME280_pressure;Samples;Min_cycle;Max_cycle;Signal;HPM_P1;HPM_P2
2024/03/07 00:05:35;;;;;;;;;;;6.10;99.90;;;;;;6700418;88;20076;-73
2024/03/07 00:15:36;;;;;;;;;;;6.00;99.90;;;;;;6703527;88;20064;-74
2024/03/07 00:25:37;;;;;;;;;;;5.90;99.90;;;;;;6716791;77;20051;-74
2024/03/07 00:35:38;;;;;;;;;;;5.90;99.90;;;;;;6718416;88;20055;-73
2024/03/07 00:45:38;;;;;;;;;;;5.70;99.90;;;;;;6718294;88;20082;-75
2024/03/07 00:55:39;;;;;;;;;;;5.60;99.90;;;;;;6735326;88;20074;-75
2024/03/07 01:05:39;;;;;;;;;;;5.50;99.90;;;;;;6718928;88;20437;-74
2024/03/07 01:15:40;;;;;;;;;;;5.40;99.90;;;;;;6723358;88;20051;-75
2024/03/07 01:25:40;;;;;;;;;;;5.30;99.90;;;;;;6720068;88;20552;-75
2024/03/07 01:35:41;;;;;;;;;;;5.10;99.90;;;;;;6724593;88;20080;-75
2024/03/07 01:45:41;;;;;;;;;;;4.90;99.90;;;;;;6726420;88;20227;-75
2024/03/07 01:55:44;;;;;;;;;;;4.80;99.90;;;;;;6719583;88;20258;-75
2024/03/07 02:05:44;;;;;;;;;;;4.80;99.90;;;;;;6720653;88;20074;-75
2024/03/07 02:15:45;;;;;;;;;;;4.70;99.90;;;;;;6713454;88;20043;-75
2024/03/07 02:25:45;;;;;;;;;;;4.50;99.90;;;;;;6719006;88;20542;-75
2024/03/07 02:35:46;;;;;;;;;;;4.40;99.90;;;;;;6723434;88;20117;-75
2024/03/07 02:45:46;;;;;;;;;;;4.30;99.90;;;;;;6719427;88;20553;-75
2024/03/07 02:55:47;;;;;;;;;;;4.20;99.90;;;;;;6718344;88;20139;-75
2024/03/07 03:05:47;;;;;;;;;;;4.00;99.90;;;;;;6721795;88;20091;-75
2024/03/07 03:15:48;;;;;;;;;;;3.90;99.90;;;;;;6718702;88;20077;-75
2024/03/07 03:25:49;;;;;;;;;;;3.80;99.90;;;;;;6719284;88;20501;-75
2024/03/07 03:35:50;;;;;;;;;;;3.70;99.90;;;;;;6715777;88;20514;-75
2024/03/07 03:45:50;;;;;;;;;;;3.70;99.90;;;;;;6722170;88;20067;-75
2024/03/07 03:55:50;;;;;;;;;;;3.60;99.90;;;;;;6719066;88;20169;-75
2024/03/07 04:05:51;;;;;;;;;;;3.50;99.90;;;;;;6717669;88;20184;-75
2024/03/07 04:15:52;;;;;;;;;;;3.50;99.90;;;;;;6719544;88;20075;-75
2024/03/07 04:25:52;;;;;;;;;;;3.60;99.90;;;;;;6720312;88;20515;-75
2024/03/07 04:35:53;;;;;;;;;;;3.50;99.90;;;;;;6722881;88;20055;-74
2024/03/07 04:45:53;;;;;;;;;;;3.60;99.90;;;;;;6720768;88;20172;-74
2024/03/07 04:55:54;;;;;;;;;;;3.80;99.90;;;;;;6726338;88;20530;-76
2024/03/07 05:05:54;;;;;;;;;;;3.90;99.90;;;;;;6725961;88;20082;-75
2024/03/07 05:15:55;;;;;;;;;;;4.00;99.90;;;;;;6718730;88;20055;-75
2024/03/07 05:25:55;;;;;;;;;;;4.00;99.90;;;;;;6718551;88;20081;-75
2024/03/07 05:36:13;;;;;;;;;;;4.00;99.90;;;;;;6715698;88;20050;-75
2024/03/07 05:46:13;;;;;;;;;;;4.00;99.90;;;;;;6716441;88;20097;-76
2024/03/07 05:56:14;;;;;;;;;;;4.00;99.90;;;;;;6715843;88;20265;-74
2024/03/07 06:06:14;;;;;;;;;;;4.10;99.90;;;;;;6719341;88;20158;-75
2024/03/07 06:16:15;;;;;;;;;;;4.20;99.90;;;;;;6721617;88;20071;-75
2024/03/07 06:26:26;;;;;;;;;;;4.20;99.90;;;;;;6726232;77;20083;-74
2024/03/07 06:36:28;;;;;;;;;;;4.20;99.90;;;;;;6715461;88;20092;-75
2024/03/07 06:46:29;;;;;;;;;;;4.30;99.90;;;;;;6717556;88;20063;-74
2024/03/07 06:56:30;;;;;;;;;;;4.50;99.90;;;;;;6714743;88;20112;-76
2024/03/07 07:06:31;;;;;;;;;;;4.80;99.90;;;;;;6709226;88;20616;-74
2024/03/07 07:16:33;;;;;;;;;;;5.10;99.90;;;;;;6717144;88;20182;-74
2024/03/07 07:26:34;;;;;;;;;;;5.40;99.90;;;;;;6714474;88;20145;-76
2024/03/07 07:36:34;;;;;;;;;;;6.00;99.90;;;;;;6719835;88;20181;-75
2024/03/07 07:46:35;;;;;;;;;;;6.40;99.90;;;;;;6713057;88;20094;-73
2024/03/07 07:56:35;;;;;;;;;;;6.70;99.90;;;;;;6712888;88;20084;-74
2024/03/07 08:06:36;;;;;;;;;;;7.30;99.90;;;;;;6715665;88;20542;-74
2024/03/07 08:16:36;;;;;;;;;;;10.70;99.90;;;;;;6710124;88;20566;-74
2024/03/07 08:26:36;;;;;;;;;;;10.40;99.90;;;;;;6715711;88;20248;-74
2024/03/07 08:36:39;;;;;;;;;;;10.10;99.90;;;;;;6721514;88;20559;-74
2024/03/07 08:46:41;;;;;;;;;;;8.90;99.90;;;;;;6722211;88;20074;-73
2024/03/07 08:56:42;;;;;;;;;;;8.50;99.90;;;;;;6722430;88;20058;-73
2024/03/07 09:06:42;;;;;;;;;;;8.90;99.90;;;;;;6723395;88;20215;-74
2024/03/07 09:16:43;;;;;;;;;;;8.40;99.90;;;;;;6722285;88;20160;-74
2024/03/07 09:26:44;;;;;;;;;;;7.60;99.90;;;;;;6714136;88;20066;-75
2024/03/07 09:36:44;;;;;;;;;;;7.60;99.90;;;;;;6718754;88;20059;-74
2024/03/07 09:46:46;;;;;;;;;;;7.90;99.90;;;;;;6715386;88;20111;-75
2024/03/07 09:56:49;;;;;;;;;;;7.90;99.90;;;;;;6715080;88;20596;-74
2024/03/07 10:06:52;;;;;;;;;;;8.20;99.90;;;;;;6718384;88;21100;-75
2024/03/07 10:16:53;;;;;;;;;;;8.00;99.90;;;;;;6721866;88;20080;-74
2024/03/07 10:26:57;;;;;;;;;;;9.50;99.90;;;;;;6724706;88;20628;-74
2024/03/07 10:37:03;;;;;;;;;;;9.70;99.90;;;;;;6719644;88;20589;-74
2024/03/07 10:47:04;;;;;;;;;;;8.70;99.90;;;;;;6719009;88;20544;-74
2024/03/07 10:57:28;;;;;;;;;;;8.80;99.90;;;;;;6731360;88;20055;-74
2024/03/07 11:07:29;;;;;;;;;;;10.40;99.90;;;;;;6717595;88;20707;-74
2024/03/07 11:17:30;;;;;;;;;;;10.30;99.90;;;;;;6714936;88;20067;-74
2024/03/07 11:27:30;;;;;;;;;;;9.90;99.90;;;;;;6714519;88;20067;-74
2024/03/07 11:37:46;;;;;;;;;;;9.80;99.90;;;;;;6716895;88;20070;-74
2024/03/07 11:47:46;;;;;;;;;;;10.50;99.90;;;;;;6713114;88;20123;-74
2024/03/07 11:57:47;;;;;;;;;;;10.30;99.90;;;;;;6716609;88;20070;-74
2024/03/07 12:07:49;;;;;;;;;;;10.50;99.90;;;;;;6718283;88;20540;-74
2024/03/07 12:17:50;;;;;;;;;;;10.10;99.90;;;;;;6721822;88;20171;-74
2024/03/07 12:38:52;;;;;;;;;;;10.70;99.90;;;;;;6698542;88;20072;-78
2024/03/07 12:48:58;;;;;;;;;;;12.20;99.90;;;;;;6696854;88;20166;-79
2024/03/07 12:59:00;;;;;;;;;;;12.50;99.90;;;;;;6694238;89;20509;-78
2024/03/07 13:09:00;;;;;;;;;;;11.20;99.90;;;;;;6694360;88;20055;-78
2024/03/07 13:19:04;;;;;;;;;;;11.80;99.90;;;;;;6701513;88;20049;-77
2024/03/07 13:29:04;;;;;;;;;;;11.10;99.90;;;;;;6700833;88;20114;-79
2024/03/07 13:39:05;;;;;;;;;;;10.60;99.90;;;;;;6696916;88;20052;-78
2024/03/07 13:49:16;;;;;;;;;;;10.40;99.90;;;;;;6696618;88;20078;-79
2024/03/07 13:59:23;;;;;;;;;;;10.40;99.90;;;;;;6695234;88;20187;-78
2024/03/07 14:09:36;;;;;;;;;;;10.10;99.90;;;;;;6692979;88;20048;-77
2024/03/07 14:19:57;;;;;;;;;;;10.20;99.90;;;;;;6693835;88;20062;-78
2024/03/07 14:30:22;;;;;;;;;;;10.10;99.90;;;;;;6694863;88;20074;-78
2024/03/07 14:40:24;;;;;;;;;;;10.00;99.90;;;;;;6693193;88;20089;-79
2024/03/07 14:50:27;;;;;;;;;;;9.80;99.90;;;;;;6694049;88;20049;-78
2024/03/07 15:00:29;;;;;;;;;;;9.70;99.90;;;;;;6691779;88;20084;-79
2024/03/07 15:10:34;;;;;;;;;;;9.80;99.90;;;;;;6694747;88;20813;-78
2024/03/07 15:20:34;;;;;;;;;;;9.70;99.90;;;;;;6687721;88;20596;-78
2024/03/07 15:30:35;;;;;;;;;;;9.70;99.90;;;;;;6692938;88;20064;-78
2024/03/07 15:40:36;;;;;;;;;;;9.50;99.90;;;;;;6696247;88;20064;-77
2024/03/07 15:50:36;;;;;;;;;;;9.60;99.90;;;;;;6709652;88;20520;-78
2024/03/07 16:00:38;;;;;;;;;;;9.40;99.90;;;;;;6698517;88;20053;-78
2024/03/07 16:10:40;;;;;;;;;;;9.40;99.90;;;;;;6694019;88;20522;-77
2024/03/07 16:20:41;;;;;;;;;;;9.40;99.90;;;;;;6695252;88;20066;-78
2024/03/07 16:30:43;;;;;;;;;;;9.30;99.90;;;;;;6695549;88;20123;-78
2024/03/07 16:40:44;;;;;;;;;;;9.40;99.90;;;;;;6695876;88;20207;-78
2024/03/07 16:50:44;;;;;;;;;;;9.40;99.90;;;;;;6690053;88;20052;-76
2024/03/07 17:00:45;;;;;;;;;;;9.20;99.90;;;;;;6690689;88;20103;-78
2024/03/07 17:10:45;;;;;;;;;;;9.10;99.90;;;;;;6685212;88;20160;-76
2024/03/07 17:20:46;;;;;;;;;;;8.90;99.90;;;;;;6688338;88;20600;-78
2024/03/07 17:30:47;;;;;;;;;;;8.80;99.90;;;;;;6690214;88;20097;-78
2024/03/07 17:40:48;;;;;;;;;;;8.80;99.90;;;;;;6686707;88;20057;-79
2024/03/07 17:50:49;;;;;;;;;;;8.80;99.90;;;;;;6689369;88;20515;-78
2024/03/07 18:00:49;;;;;;;;;;;8.80;99.90;;;;;;6689288;88;20369;-79
2024/03/07 18:10:50;;;;;;;;;;;8.70;99.90;;;;;;6685034;88;20057;-77
2024/03/07 18:20:50;;;;;;;;;;;8.70;99.90;;;;;;6689088;88;20578;-77
2024/03/07 18:40:56;;;;;;;;;;;8.60;99.90;;;;;;6716734;88;20079;-77
2024/03/07 18:50:58;;;;;;;;;;;8.50;99.90;;;;;;6710989;88;20060;-78
2024/03/07 19:01:03;;;;;;;;;;;8.40;99.90;;;;;;6699495;88;20069;-78
2024/03/07 19:11:04;;;;;;;;;;;8.40;99.90;;;;;;6698243;88;20100;-77
2024/03/07 19:21:09;;;;;;;;;;;8.20;99.90;;;;;;6696869;88;20077;-77
2024/03/07 19:31:10;;;;;;;;;;;8.20;99.90;;;;;;6700696;88;20228;-77
2024/03/07 19:41:11;;;;;;;;;;;8.10;99.90;;;;;;6709098;88;20519;-77
2024/03/07 19:51:11;;;;;;;;;;;8.00;99.90;;;;;;6701216;88;20136;-77
2024/03/07 20:01:12;;;;;;;;;;;7.90;99.90;;;;;;6702051;88;20051;-77
2024/03/07 20:11:13;;;;;;;;;;;7.80;99.90;;;;;;6701665;88;20060;-77
2024/03/07 20:21:14;;;;;;;;;;;7.50;99.90;;;;;;6700642;88;20665;-77
2024/03/07 20:31:14;;;;;;;;;;;7.40;99.90;;;;;;6698667;88;20108;-77
2024/03/07 20:41:15;;;;;;;;;;;7.20;99.90;;;;;;6707722;88;20106;-78
2024/03/07 20:51:16;;;;;;;;;;;7.10;99.90;;;;;;6708297;88;20240;-77
2024/03/07 21:01:17;;;;;;;;;;;6.90;99.90;;;;;;6701132;88;20054;-79
2024/03/07 21:11:27;;;;;;;;;;;6.70;99.90;;;;;;6704124;88;20046;-78
2024/03/07 21:21:28;;;;;;;;;;;6.50;99.90;;;;;;6701504;88;20177;-76
2024/03/07 21:31:28;;;;;;;;;;;6.20;99.90;;;;;;6699233;88;20147;-77
2024/03/07 21:41:31;;;;;;;;;;;6.10;99.90;;;;;;6699819;88;20054;-77
2024/03/07 21:51:31;;;;;;;;;;;6.00;99.90;;;;;;6702608;88;20058;-77
2024/03/07 22:01:38;;;;;;;;;;;5.70;99.90;;;;;;6701590;88;20108;-77
2024/03/07 22:11:38;;;;;;;;;;;5.60;99.90;;;;;;6700981;88;20075;-77
2024/03/07 22:21:39;;;;;;;;;;;5.40;99.90;;;;;;6711613;88;20055;-77
2024/03/07 22:31:42;;;;;;;;;;;5.20;99.90;;;;;;6707045;88;20619;-75
2024/03/07 22:41:46;;;;;;;;;;;5.30;99.90;;;;;;6697383;88;20846;-78
2024/03/07 22:51:47;;;;;;;;;;;5.20;99.90;;;;;;6701837;88;20068;-75
2024/03/07 23:01:47;;;;;;;;;;;5.00;99.90;;;;;;6709566;88;20044;-76
2024/03/07 23:11:48;;;;;;;;;;;4.90;99.90;;;;;;6704166;88;20076;-77
2024/03/07 23:21:48;;;;;;;;;;;4.90;99.90;;;;;;6700968;88;20076;-77
2024/03/07 23:31:49;;;;;;;;;;;4.80;99.90;;;;;;6705180;88;20085;-76
2024/03/07 23:41:50;;;;;;;;;;;4.70;99.90;;;;;;6700192;88;20523;-76
2024/03/07 23:51:50;;;;;;;;;;;4.60;99.90;;;;;;6699964;88;20064;-76
